sensor_id;sensor_type;location;lat;lon;timestamp;P1;durP1;ratioP1;P2;durP2;ratioP2
63943;SDS011;50121;51.218;7.664;2022-08-01T00:01:43;15.15;;;13.88;;
63943;SDS011;50121;51.218;7.664;2022-08-01T00:04:11;15.05;;;13.85;;
63943;SDS011;50121;51.218;7.664;2022-08-01T00:06:38;16.05;;;14.65;;
63943;SDS011;50121;51.218;7.664;2022-08-01T00:09:06;15.55;;;14.15;;
63943;SDS011;50121;51.218;7.664;2022-08-01T00:11:33;15.95;;;14.30;;
63943;SDS011;50121;51.218;7.664;2022-08-01T00:14:01;14.68;;;13.38;;
63943;SDS011;50121;51.218;7.664;2022-08-01T00:16:29;15.02;;;13.73;;
63943;SDS011;50121;51.218;7.664;2022-08-01T00:18:56;13.82;;;12.63;;
63943;SDS011;50121;51.218;7.664;2022-08-01T00:21:24;14.32;;;13.02;;
63943;SDS011;50121;51.218;7.664;2022-08-01T00:23:51;13.80;;;12.65;;
63943;SDS011;50121;51.218;7.664;2022-08-01T00:26:19;14.35;;;13.05;;
63943;SDS011;50121;51.218;7.664;2022-08-01T00:28:46;13.57;;;12.23;;
63943;SDS011;50121;51.218;7.664;2022-08-01T00:31:14;13.48;;;12.35;;
63943;SDS011;50121;51.218;7.664;2022-08-01T00:33:41;13.75;;;12.35;;
63943;SDS011;50121;51.218;7.664;2022-08-01T00:36:09;13.20;;;12.07;;
63943;SDS011;50121;51.218;7.664;2022-08-01T00:38:37;13.98;;;12.77;;
63943;SDS011;50121;51.218;7.664;2022-08-01T00:41:04;13.50;;;12.40;;
63943;SDS011;50121;51.218;7.664;2022-08-01T00:43:32;14.23;;;13.02;;
63943;SDS011;50121;51.218;7.664;2022-08-01T00:45:59;13.93;;;12.82;;
63943;SDS011;50121;51.218;7.664;2022-08-01T00:48:27;13.52;;;12.48;;
63943;SDS011;50121;51.218;7.664;2022-08-01T00:50:54;13.73;;;12.63;;
63943;SDS011;50121;51.218;7.664;2022-08-01T00:53:22;13.45;;;12.13;;
63943;SDS011;50121;51.218;7.664;2022-08-01T00:55:50;13.80;;;12.60;;
63943;SDS011;50121;51.218;7.664;2022-08-01T00:58:17;13.82;;;12.73;;
63943;SDS011;50121;51.218;7.664;2022-08-01T01:00:45;13.75;;;12.60;;
63943;SDS011;50121;51.218;7.664;2022-08-01T01:03:12;13.35;;;12.15;;
63943;SDS011;50121;51.218;7.664;2022-08-01T01:05:45;14.50;;;13.23;;
63943;SDS011;50121;51.218;7.664;2022-08-01T01:08:27;14.10;;;12.90;;
63943;SDS011;50121;51.218;7.664;2022-08-01T01:11:13;15.00;;;13.70;;
63943;SDS011;50121;51.218;7.664;2022-08-01T01:13:46;14.80;;;13.50;;
63943;SDS011;50121;51.218;7.664;2022-08-01T01:16:15;19.20;;;14.60;;
63943;SDS011;50121;51.218;7.664;2022-08-01T01:18:45;16.23;;;14.43;;
63943;SDS011;50121;51.218;7.664;2022-08-01T01:26:39;13.88;;;12.57;;
63943;SDS011;50121;51.218;7.664;2022-08-01T01:29:24;12.70;;;11.70;;
63943;SDS011;50121;51.218;7.664;2022-08-01T01:32:02;11.98;;;11.07;;
63943;SDS011;50121;51.218;7.664;2022-08-01T01:34:32;12.35;;;11.35;;
63943;SDS011;50121;51.218;7.664;2022-08-01T01:37:01;13.35;;;12.15;;
63943;SDS011;50121;51.218;7.664;2022-08-01T01:39:30;12.80;;;11.80;;
63943;SDS011;50121;51.218;7.664;2022-08-01T01:41:58;13.35;;;12.18;;
63943;SDS011;50121;51.218;7.664;2022-08-01T01:44:26;12.48;;;11.48;;
63943;SDS011;50121;51.218;7.664;2022-08-01T01:46:54;13.02;;;11.77;;
63943;SDS011;50121;51.218;7.664;2022-08-01T01:49:24;14.25;;;12.95;;
63943;SDS011;50121;51.218;7.664;2022-08-01T01:51:53;15.18;;;13.63;;
63943;SDS011;50121;51.218;7.664;2022-08-01T01:54:25;17.25;;;15.50;;
63943;SDS011;50121;51.218;7.664;2022-08-01T01:56:56;16.80;;;15.07;;
63943;SDS011;50121;51.218;7.664;2022-08-01T01:59:25;17.27;;;15.63;;
63943;SDS011;50121;51.218;7.664;2022-08-01T02:01:54;17.13;;;15.43;;
63943;SDS011;50121;51.218;7.664;2022-08-01T02:04:22;17.98;;;16.13;;
63943;SDS011;50121;51.218;7.664;2022-08-01T02:06:51;19.02;;;16.50;;
63943;SDS011;50121;51.218;7.664;2022-08-01T02:09:20;19.05;;;17.15;;
63943;SDS011;50121;51.218;7.664;2022-08-01T02:11:49;23.48;;;18.25;;
63943;SDS011;50121;51.218;7.664;2022-08-01T02:14:18;22.95;;;19.02;;
63943;SDS011;50121;51.218;7.664;2022-08-01T02:16:49;27.88;;;20.73;;
63943;SDS011;50121;51.218;7.664;2022-08-01T02:19:17;26.10;;;20.98;;
63943;SDS011;50121;51.218;7.664;2022-08-01T02:24:14;29.65;;;21.85;;
63943;SDS011;50121;51.218;7.664;2022-08-01T02:26:46;27.48;;;21.42;;
63943;SDS011;50121;51.218;7.664;2022-08-01T02:29:16;31.52;;;22.50;;
63943;SDS011;50121;51.218;7.664;2022-08-01T02:31:47;31.98;;;23.33;;
63943;SDS011;50121;51.218;7.664;2022-08-01T02:34:17;31.10;;;23.42;;
63943;SDS011;50121;51.218;7.664;2022-08-01T02:36:45;34.25;;;23.52;;
63943;SDS011;50121;51.218;7.664;2022-08-01T02:39:14;31.00;;;23.20;;
63943;SDS011;50121;51.218;7.664;2022-08-01T02:41:44;38.95;;;24.25;;
63943;SDS011;50121;51.218;7.664;2022-08-01T02:44:15;36.97;;;24.23;;
63943;SDS011;50121;51.218;7.664;2022-08-01T02:46:56;36.22;;;24.77;;
63943;SDS011;50121;51.218;7.664;2022-08-01T02:49:32;33.28;;;24.92;;
63943;SDS011;50121;51.218;7.664;2022-08-01T02:52:01;37.33;;;25.90;;
63943;SDS011;50121;51.218;7.664;2022-08-01T02:54:31;38.47;;;25.55;;
63943;SDS011;50121;51.218;7.664;2022-08-01T02:57:00;42.75;;;26.35;;
63943;SDS011;50121;51.218;7.664;2022-08-01T02:59:29;38.65;;;25.50;;
63943;SDS011;50121;51.218;7.664;2022-08-01T03:01:57;38.28;;;25.80;;
63943;SDS011;50121;51.218;7.664;2022-08-01T03:04:26;37.58;;;25.55;;
63943;SDS011;50121;51.218;7.664;2022-08-01T03:06:54;38.05;;;25.75;;
63943;SDS011;50121;51.218;7.664;2022-08-01T03:09:25;37.30;;;24.55;;
63943;SDS011;50121;51.218;7.664;2022-08-01T03:11:53;40.67;;;24.55;;
63943;SDS011;50121;51.218;7.664;2022-08-01T03:14:23;33.38;;;24.58;;
63943;SDS011;50121;51.218;7.664;2022-08-01T03:16:51;38.35;;;24.83;;
63943;SDS011;50121;51.218;7.664;2022-08-01T03:19:18;34.42;;;23.92;;
63943;SDS011;50121;51.218;7.664;2022-08-01T03:21:47;30.67;;;23.98;;
63943;SDS011;50121;51.218;7.664;2022-08-01T03:24:15;35.17;;;23.35;;
63943;SDS011;50121;51.218;7.664;2022-08-01T03:26:43;39.50;;;24.38;;
63943;SDS011;50121;51.218;7.664;2022-08-01T03:29:17;33.63;;;23.13;;
63943;SDS011;50121;51.218;7.664;2022-08-01T03:31:46;28.73;;;21.63;;
63943;SDS011;50121;51.218;7.664;2022-08-01T03:34:15;31.10;;;22.80;;
63943;SDS011;50121;51.218;7.664;2022-08-01T03:36:47;29.45;;;22.33;;
63943;SDS011;50121;51.218;7.664;2022-08-01T03:39:17;26.92;;;22.23;;
63943;SDS011;50121;51.218;7.664;2022-08-01T03:41:51;30.48;;;22.38;;
63943;SDS011;50121;51.218;7.664;2022-08-01T03:44:23;30.80;;;20.75;;
63943;SDS011;50121;51.218;7.664;2022-08-01T03:46:53;27.83;;;22.05;;
63943;SDS011;50121;51.218;7.664;2022-08-01T03:49:22;28.45;;;21.73;;
63943;SDS011;50121;51.218;7.664;2022-08-01T03:51:50;28.75;;;21.92;;
63943;SDS011;50121;51.218;7.664;2022-08-01T03:54:20;33.53;;;22.48;;
63943;SDS011;50121;51.218;7.664;2022-08-01T03:56:48;32.33;;;21.67;;
63943;SDS011;50121;51.218;7.664;2022-08-01T03:59:16;31.27;;;21.95;;
63943;SDS011;50121;51.218;7.664;2022-08-01T04:01:44;32.72;;;22.38;;
63943;SDS011;50121;51.218;7.664;2022-08-01T04:04:12;34.75;;;22.60;;
63943;SDS011;50121;51.218;7.664;2022-08-01T04:06:40;32.50;;;22.85;;
63943;SDS011;50121;51.218;7.664;2022-08-01T04:09:11;39.15;;;23.98;;
63943;SDS011;50121;51.218;7.664;2022-08-01T04:11:39;36.58;;;23.73;;
63943;SDS011;50121;51.218;7.664;2022-08-01T04:14:07;37.33;;;22.83;;
63943;SDS011;50121;51.218;7.664;2022-08-01T04:16:35;34.08;;;23.25;;
63943;SDS011;50121;51.218;7.664;2022-08-01T04:19:02;36.42;;;23.88;;
63943;SDS011;50121;51.218;7.664;2022-08-01T04:21:34;37.38;;;23.50;;
63943;SDS011;50121;51.218;7.664;2022-08-01T04:24:03;39.95;;;25.13;;
63943;SDS011;50121;51.218;7.664;2022-08-01T04:26:32;39.05;;;25.33;;
63943;SDS011;50121;51.218;7.664;2022-08-01T04:29:00;37.97;;;24.60;;
63943;SDS011;50121;51.218;7.664;2022-08-01T04:31:29;36.28;;;24.42;;
63943;SDS011;50121;51.218;7.664;2022-08-01T04:33:57;37.33;;;26.17;;
63943;SDS011;50121;51.218;7.664;2022-08-01T04:36:25;38.58;;;26.00;;
63943;SDS011;50121;51.218;7.664;2022-08-01T04:38:55;40.13;;;26.15;;
63943;SDS011;50121;51.218;7.664;2022-08-01T04:41:24;39.67;;;25.15;;
63943;SDS011;50121;51.218;7.664;2022-08-01T04:43:52;42.72;;;25.45;;
63943;SDS011;50121;51.218;7.664;2022-08-01T04:46:21;37.78;;;24.75;;
63943;SDS011;50121;51.218;7.664;2022-08-01T04:48:49;42.22;;;25.80;;
63943;SDS011;50121;51.218;7.664;2022-08-01T04:51:17;39.45;;;24.85;;
63943;SDS011;50121;51.218;7.664;2022-08-01T04:53:48;43.70;;;25.73;;
63943;SDS011;50121;51.218;7.664;2022-08-01T04:56:18;45.80;;;25.13;;
63943;SDS011;50121;51.218;7.664;2022-08-01T04:58:46;48.03;;;25.88;;
63943;SDS011;50121;51.218;7.664;2022-08-01T05:01:14;44.85;;;26.08;;
63943;SDS011;50121;51.218;7.664;2022-08-01T05:03:42;45.15;;;26.42;;
63943;SDS011;50121;51.218;7.664;2022-08-01T05:06:10;52.20;;;30.60;;
63943;SDS011;50121;51.218;7.664;2022-08-01T05:08:38;43.28;;;28.40;;
63943;SDS011;50121;51.218;7.664;2022-08-01T05:11:05;47.35;;;26.08;;
63943;SDS011;50121;51.218;7.664;2022-08-01T05:13:33;48.88;;;28.92;;
63943;SDS011;50121;51.218;7.664;2022-08-01T05:16:00;42.65;;;27.63;;
63943;SDS011;50121;51.218;7.664;2022-08-01T05:18:30;49.70;;;27.73;;
63943;SDS011;50121;51.218;7.664;2022-08-01T05:20:57;41.10;;;26.45;;
63943;SDS011;50121;51.218;7.664;2022-08-01T05:23:25;43.75;;;26.58;;
63943;SDS011;50121;51.218;7.664;2022-08-01T05:25:53;40.75;;;26.13;;
63943;SDS011;50121;51.218;7.664;2022-08-01T05:28:21;44.63;;;27.73;;
63943;SDS011;50121;51.218;7.664;2022-08-01T05:30:48;39.20;;;27.80;;
63943;SDS011;50121;51.218;7.664;2022-08-01T05:33:16;47.92;;;30.10;;
63943;SDS011;50121;51.218;7.664;2022-08-01T05:35:44;40.53;;;25.88;;
63943;SDS011;50121;51.218;7.664;2022-08-01T05:38:11;47.45;;;29.35;;
63943;SDS011;50121;51.218;7.664;2022-08-01T05:40:39;42.60;;;27.00;;
63943;SDS011;50121;51.218;7.664;2022-08-01T05:43:07;42.90;;;26.15;;
63943;SDS011;50121;51.218;7.664;2022-08-01T05:45:34;36.05;;;23.38;;
63943;SDS011;50121;51.218;7.664;2022-08-01T05:48:02;37.30;;;24.35;;
63943;SDS011;50121;51.218;7.664;2022-08-01T05:50:29;33.05;;;23.27;;
63943;SDS011;50121;51.218;7.664;2022-08-01T05:52:57;35.25;;;22.88;;
63943;SDS011;50121;51.218;7.664;2022-08-01T05:55:25;33.03;;;22.70;;
63943;SDS011;50121;51.218;7.664;2022-08-01T05:57:52;32.55;;;22.88;;
63943;SDS011;50121;51.218;7.664;2022-08-01T06:00:20;39.13;;;24.45;;
63943;SDS011;50121;51.218;7.664;2022-08-01T06:02:47;33.38;;;23.08;;
63943;SDS011;50121;51.218;7.664;2022-08-01T06:05:15;37.15;;;24.20;;
63943;SDS011;50121;51.218;7.664;2022-08-01T06:07:43;34.25;;;22.63;;
63943;SDS011;50121;51.218;7.664;2022-08-01T06:10:10;32.75;;;24.10;;
63943;SDS011;50121;51.218;7.664;2022-08-01T06:12:38;35.42;;;24.45;;
63943;SDS011;50121;51.218;7.664;2022-08-01T06:15:05;36.88;;;23.27;;
63943;SDS011;50121;51.218;7.664;2022-08-01T06:17:33;32.38;;;23.55;;
63943;SDS011;50121;51.218;7.664;2022-08-01T06:20:01;35.15;;;23.00;;
63943;SDS011;50121;51.218;7.664;2022-08-01T06:22:28;32.22;;;23.27;;
63943;SDS011;50121;51.218;7.664;2022-08-01T06:24:56;26.98;;;21.10;;
63943;SDS011;50121;51.218;7.664;2022-08-01T06:27:24;27.23;;;20.15;;
63943;SDS011;50121;51.218;7.664;2022-08-01T06:29:52;29.35;;;20.90;;
63943;SDS011;50121;51.218;7.664;2022-08-01T06:32:20;30.88;;;22.00;;
63943;SDS011;50121;51.218;7.664;2022-08-01T06:34:51;29.23;;;21.08;;
63943;SDS011;50121;51.218;7.664;2022-08-01T06:37:18;27.77;;;21.63;;
63943;SDS011;50121;51.218;7.664;2022-08-01T06:39:46;30.98;;;22.60;;
63943;SDS011;50121;51.218;7.664;2022-08-01T06:42:14;29.75;;;21.35;;
63943;SDS011;50121;51.218;7.664;2022-08-01T06:44:42;26.98;;;21.25;;
63943;SDS011;50121;51.218;7.664;2022-08-01T06:47:09;29.35;;;22.70;;
63943;SDS011;50121;51.218;7.664;2022-08-01T06:49:37;31.63;;;23.48;;
63943;SDS011;50121;51.218;7.664;2022-08-01T06:52:04;28.95;;;21.98;;
63943;SDS011;50121;51.218;7.664;2022-08-01T06:54:32;27.80;;;22.35;;
63943;SDS011;50121;51.218;7.664;2022-08-01T06:57:00;29.02;;;22.85;;
63943;SDS011;50121;51.218;7.664;2022-08-01T06:59:27;27.08;;;23.38;;
63943;SDS011;50121;51.218;7.664;2022-08-01T07:01:56;27.30;;;22.50;;
63943;SDS011;50121;51.218;7.664;2022-08-01T07:04:23;27.65;;;21.77;;
63943;SDS011;50121;51.218;7.664;2022-08-01T07:06:51;25.90;;;20.98;;
63943;SDS011;50121;51.218;7.664;2022-08-01T07:09:18;26.20;;;21.88;;
63943;SDS011;50121;51.218;7.664;2022-08-01T07:11:46;26.45;;;21.70;;
63943;SDS011;50121;51.218;7.664;2022-08-01T07:14:13;29.33;;;24.48;;
63943;SDS011;50121;51.218;7.664;2022-08-01T07:16:41;29.25;;;23.95;;
63943;SDS011;50121;51.218;7.664;2022-08-01T07:19:08;29.20;;;24.40;;
63943;SDS011;50121;51.218;7.664;2022-08-01T07:21:36;28.67;;;22.35;;
63943;SDS011;50121;51.218;7.664;2022-08-01T07:24:05;30.60;;;23.90;;
63943;SDS011;50121;51.218;7.664;2022-08-01T07:26:33;26.88;;;22.75;;
63943;SDS011;50121;51.218;7.664;2022-08-01T07:29:01;25.67;;;22.08;;
63943;SDS011;50121;51.218;7.664;2022-08-01T07:31:29;29.05;;;22.40;;
63943;SDS011;50121;51.218;7.664;2022-08-01T07:33:57;27.05;;;21.20;;
63943;SDS011;50121;51.218;7.664;2022-08-01T07:36:25;28.85;;;23.27;;
63943;SDS011;50121;51.218;7.664;2022-08-01T07:38:52;26.27;;;21.95;;
63943;SDS011;50121;51.218;7.664;2022-08-01T07:41:20;24.48;;;20.95;;
63943;SDS011;50121;51.218;7.664;2022-08-01T07:43:47;27.13;;;20.98;;
63943;SDS011;50121;51.218;7.664;2022-08-01T07:46:20;28.42;;;20.70;;
63943;SDS011;50121;51.218;7.664;2022-08-01T07:48:47;22.50;;;20.10;;
63943;SDS011;50121;51.218;7.664;2022-08-01T07:51:15;22.27;;;19.83;;
63943;SDS011;50121;51.218;7.664;2022-08-01T07:53:42;19.85;;;17.77;;
63943;SDS011;50121;51.218;7.664;2022-08-01T07:56:10;21.15;;;18.98;;
63943;SDS011;50121;51.218;7.664;2022-08-01T07:58:38;24.80;;;20.13;;
63943;SDS011;50121;51.218;7.664;2022-08-01T08:01:05;21.52;;;19.33;;
63943;SDS011;50121;51.218;7.664;2022-08-01T08:03:33;21.55;;;18.88;;
63943;SDS011;50121;51.218;7.664;2022-08-01T08:06:01;21.00;;;18.77;;
63943;SDS011;50121;51.218;7.664;2022-08-01T08:08:28;22.02;;;19.35;;
63943;SDS011;50121;51.218;7.664;2022-08-01T08:10:56;22.10;;;18.20;;
63943;SDS011;50121;51.218;7.664;2022-08-01T08:13:23;19.73;;;17.75;;
63943;SDS011;50121;51.218;7.664;2022-08-01T08:15:51;19.02;;;17.23;;
63943;SDS011;50121;51.218;7.664;2022-08-01T08:18:19;18.48;;;16.42;;
63943;SDS011;50121;51.218;7.664;2022-08-01T08:20:46;16.80;;;15.20;;
63943;SDS011;50121;51.218;7.664;2022-08-01T08:23:14;15.85;;;14.45;;
63943;SDS011;50121;51.218;7.664;2022-08-01T08:26:00;17.15;;;15.55;;
63943;SDS011;50121;51.218;7.664;2022-08-01T08:28:27;16.60;;;15.20;;
63943;SDS011;50121;51.218;7.664;2022-08-01T08:30:55;16.58;;;15.10;;
63943;SDS011;50121;51.218;7.664;2022-08-01T08:33:22;15.38;;;13.95;;
63943;SDS011;50121;51.218;7.664;2022-08-01T08:35:50;14.65;;;13.48;;
63943;SDS011;50121;51.218;7.664;2022-08-01T08:38:18;14.73;;;13.50;;
63943;SDS011;50121;51.218;7.664;2022-08-01T08:40:45;14.65;;;13.32;;
63943;SDS011;50121;51.218;7.664;2022-08-01T08:43:13;13.45;;;12.18;;
63943;SDS011;50121;51.218;7.664;2022-08-01T08:45:42;13.13;;;12.02;;
63943;SDS011;50121;51.218;7.664;2022-08-01T08:48:11;13.15;;;12.18;;
63943;SDS011;50121;51.218;7.664;2022-08-01T08:50:40;12.93;;;11.82;;
63943;SDS011;50121;51.218;7.664;2022-08-01T08:53:09;12.73;;;11.73;;
63943;SDS011;50121;51.218;7.664;2022-08-01T08:55:39;12.32;;;11.43;;
63943;SDS011;50121;51.218;7.664;2022-08-01T08:58:12;12.57;;;11.57;;
63943;SDS011;50121;51.218;7.664;2022-08-01T09:00:40;12.05;;;11.15;;
63943;SDS011;50121;51.218;7.664;2022-08-01T09:03:08;12.10;;;11.20;;
63943;SDS011;50121;51.218;7.664;2022-08-01T09:05:35;11.32;;;10.52;;
63943;SDS011;50121;51.218;7.664;2022-08-01T09:08:07;11.38;;;10.48;;
63943;SDS011;50121;51.218;7.664;2022-08-01T09:10:35;11.38;;;10.48;;
63943;SDS011;50121;51.218;7.664;2022-08-01T09:13:03;10.75;;;9.95;;
63943;SDS011;50121;51.218;7.664;2022-08-01T09:15:41;10.02;;;9.13;;
63943;SDS011;50121;51.218;7.664;2022-08-01T09:18:25;11.43;;;10.63;;
63943;SDS011;50121;51.218;7.664;2022-08-01T09:26:06;11.10;;;10.25;;
63943;SDS011;50121;51.218;7.664;2022-08-01T09:28:34;11.00;;;10.20;;
63943;SDS011;50121;51.218;7.664;2022-08-01T09:31:08;11.10;;;10.30;;
63943;SDS011;50121;51.218;7.664;2022-08-01T09:33:50;11.57;;;10.73;;
63943;SDS011;50121;51.218;7.664;2022-08-01T09:36:18;10.73;;;10.02;;
63943;SDS011;50121;51.218;7.664;2022-08-01T09:38:46;10.05;;;9.35;;
63943;SDS011;50121;51.218;7.664;2022-08-01T09:41:13;8.88;;;8.27;;
63943;SDS011;50121;51.218;7.664;2022-08-01T09:43:47;9.48;;;8.77;;
63943;SDS011;50121;51.218;7.664;2022-08-01T09:46:14;10.13;;;9.48;;
63943;SDS011;50121;51.218;7.664;2022-08-01T09:48:55;10.43;;;9.75;;
63943;SDS011;50121;51.218;7.664;2022-08-01T09:51:27;11.13;;;10.32;;
63943;SDS011;50121;51.218;7.664;2022-08-01T09:53:55;11.52;;;10.75;;
63943;SDS011;50121;51.218;7.664;2022-08-01T09:56:23;10.90;;;10.20;;
63943;SDS011;50121;51.218;7.664;2022-08-01T10:01:21;9.45;;;8.90;;
63943;SDS011;50121;51.218;7.664;2022-08-01T10:04:11;9.57;;;8.98;;
63943;SDS011;50121;51.218;7.664;2022-08-01T10:06:38;9.80;;;9.20;;
63943;SDS011;50121;51.218;7.664;2022-08-01T10:09:05;11.23;;;10.52;;
63943;SDS011;50121;51.218;7.664;2022-08-01T10:11:33;11.35;;;10.45;;
63943;SDS011;50121;51.218;7.664;2022-08-01T10:14:03;11.63;;;10.82;;
63943;SDS011;50121;51.218;7.664;2022-08-01T10:16:32;11.70;;;10.80;;
63943;SDS011;50121;51.218;7.664;2022-08-01T10:19:00;11.73;;;10.90;;
63943;SDS011;50121;51.218;7.664;2022-08-01T10:21:30;11.13;;;10.43;;
63943;SDS011;50121;51.218;7.664;2022-08-01T10:24:01;10.65;;;9.95;;
63943;SDS011;50121;51.218;7.664;2022-08-01T10:26:32;9.73;;;9.10;;
63943;SDS011;50121;51.218;7.664;2022-08-01T10:29:00;9.43;;;8.93;;
63943;SDS011;50121;51.218;7.664;2022-08-01T10:31:29;10.70;;;10.00;;
63943;SDS011;50121;51.218;7.664;2022-08-01T10:33:59;10.88;;;10.18;;
63943;SDS011;50121;51.218;7.664;2022-08-01T10:36:26;10.00;;;9.40;;
63943;SDS011;50121;51.218;7.664;2022-08-01T10:38:54;10.05;;;9.40;;
63943;SDS011;50121;51.218;7.664;2022-08-01T10:41:22;8.73;;;8.23;;
63943;SDS011;50121;51.218;7.664;2022-08-01T10:43:52;8.23;;;7.72;;
63943;SDS011;50121;51.218;7.664;2022-08-01T10:46:19;8.90;;;8.40;;
63943;SDS011;50121;51.218;7.664;2022-08-01T10:48:58;8.20;;;7.70;;
63943;SDS011;50121;51.218;7.664;2022-08-01T10:51:26;8.40;;;7.90;;
63943;SDS011;50121;51.218;7.664;2022-08-01T10:53:54;8.80;;;8.10;;
63943;SDS011;50121;51.218;7.664;2022-08-01T10:56:23;9.30;;;8.40;;
63943;SDS011;50121;51.218;7.664;2022-08-01T10:58:54;9.82;;;9.23;;
63943;SDS011;50121;51.218;7.664;2022-08-01T11:01:30;10.60;;;9.73;;
63943;SDS011;50121;51.218;7.664;2022-08-01T11:06:40;11.02;;;10.23;;
63943;SDS011;50121;51.218;7.664;2022-08-01T11:14:23;11.75;;;10.90;;
63943;SDS011;50121;51.218;7.664;2022-08-01T11:16:51;10.95;;;10.15;;
63943;SDS011;50121;51.218;7.664;2022-08-01T11:19:19;11.00;;;10.20;;
63943;SDS011;50121;51.218;7.664;2022-08-01T11:29:53;10.85;;;10.05;;
63943;SDS011;50121;51.218;7.664;2022-08-01T11:32:31;11.45;;;10.65;;
63943;SDS011;50121;51.218;7.664;2022-08-01T11:35:08;10.45;;;9.75;;
63943;SDS011;50121;51.218;7.664;2022-08-01T11:37:35;11.15;;;10.45;;
63943;SDS011;50121;51.218;7.664;2022-08-01T11:40:19;10.35;;;9.65;;
63943;SDS011;50121;51.218;7.664;2022-08-01T11:42:48;10.25;;;9.55;;
63943;SDS011;50121;51.218;7.664;2022-08-01T11:45:15;10.18;;;9.48;;
63943;SDS011;50121;51.218;7.664;2022-08-01T11:47:47;9.65;;;8.95;;
63943;SDS011;50121;51.218;7.664;2022-08-01T11:53:02;10.73;;;10.00;;
63943;SDS011;50121;51.218;7.664;2022-08-01T11:55:31;10.10;;;9.30;;
63943;SDS011;50121;51.218;7.664;2022-08-01T11:58:02;11.07;;;10.25;;
63943;SDS011;50121;51.218;7.664;2022-08-01T12:00:30;9.63;;;8.95;;
63943;SDS011;50121;51.218;7.664;2022-08-01T12:02:59;9.63;;;8.90;;
63943;SDS011;50121;51.218;7.664;2022-08-01T12:05:28;9.82;;;9.23;;
63943;SDS011;50121;51.218;7.664;2022-08-01T12:07:56;10.50;;;9.80;;
63943;SDS011;50121;51.218;7.664;2022-08-01T12:10:25;11.35;;;10.48;;
63943;SDS011;50121;51.218;7.664;2022-08-01T12:12:54;10.65;;;9.93;;
63943;SDS011;50121;51.218;7.664;2022-08-01T12:15:22;9.77;;;9.13;;
63943;SDS011;50121;51.218;7.664;2022-08-01T12:17:51;9.85;;;9.10;;
63943;SDS011;50121;51.218;7.664;2022-08-01T12:20:23;10.15;;;9.45;;
63943;SDS011;50121;51.218;7.664;2022-08-01T12:22:54;10.45;;;9.75;;
63943;SDS011;50121;51.218;7.664;2022-08-01T12:25:22;10.43;;;9.65;;
63943;SDS011;50121;51.218;7.664;2022-08-01T12:27:50;10.05;;;9.40;;
63943;SDS011;50121;51.218;7.664;2022-08-01T12:30:21;10.38;;;9.68;;
63943;SDS011;50121;51.218;7.664;2022-08-01T12:32:50;10.88;;;9.98;;
63943;SDS011;50121;51.218;7.664;2022-08-01T12:35:19;10.65;;;9.95;;
63943;SDS011;50121;51.218;7.664;2022-08-01T12:37:51;10.48;;;9.75;;
63943;SDS011;50121;51.218;7.664;2022-08-01T12:42:50;10.88;;;10.18;;
63943;SDS011;50121;51.218;7.664;2022-08-01T12:45:19;11.57;;;10.85;;
63943;SDS011;50121;51.218;7.664;2022-08-01T12:47:47;10.55;;;9.90;;
63943;SDS011;50121;51.218;7.664;2022-08-01T12:50:17;10.40;;;9.60;;
63943;SDS011;50121;51.218;7.664;2022-08-01T12:52:46;10.80;;;9.85;;
63943;SDS011;50121;51.218;7.664;2022-08-01T12:55:18;11.02;;;10.32;;
63943;SDS011;50121;51.218;7.664;2022-08-01T12:57:47;11.40;;;10.60;;
63943;SDS011;50121;51.218;7.664;2022-08-01T13:00:18;10.38;;;9.77;;
63943;SDS011;50121;51.218;7.664;2022-08-01T13:02:47;10.30;;;9.70;;
63943;SDS011;50121;51.218;7.664;2022-08-01T13:05:15;10.45;;;9.75;;
63943;SDS011;50121;51.218;7.664;2022-08-01T13:07:44;10.80;;;10.20;;
63943;SDS011;50121;51.218;7.664;2022-08-01T13:10:12;11.05;;;10.35;;
63943;SDS011;50121;51.218;7.664;2022-08-01T13:12:40;12.05;;;11.10;;
63943;SDS011;50121;51.218;7.664;2022-08-01T13:15:21;11.82;;;11.13;;
63943;SDS011;50121;51.218;7.664;2022-08-01T13:17:51;11.07;;;10.27;;
63943;SDS011;50121;51.218;7.664;2022-08-01T13:20:23;11.48;;;10.52;;
63943;SDS011;50121;51.218;7.664;2022-08-01T13:22:50;11.57;;;10.77;;
63943;SDS011;50121;51.218;7.664;2022-08-01T13:25:18;11.02;;;10.32;;
63943;SDS011;50121;51.218;7.664;2022-08-01T13:27:47;11.30;;;10.60;;
63943;SDS011;50121;51.218;7.664;2022-08-01T13:30:16;10.40;;;9.75;;
63943;SDS011;50121;51.218;7.664;2022-08-01T13:33:05;10.77;;;10.07;;
63943;SDS011;50121;51.218;7.664;2022-08-01T13:35:32;11.20;;;10.25;;
63943;SDS011;50121;51.218;7.664;2022-08-01T13:37:59;10.65;;;10.05;;
63943;SDS011;50121;51.218;7.664;2022-08-01T13:40:27;10.75;;;10.15;;
63943;SDS011;50121;51.218;7.664;2022-08-01T13:42:54;11.85;;;11.05;;
63943;SDS011;50121;51.218;7.664;2022-08-01T13:45:23;10.38;;;9.77;;
63943;SDS011;50121;51.218;7.664;2022-08-01T13:47:50;10.10;;;9.40;;
63943;SDS011;50121;51.218;7.664;2022-08-01T13:50:18;9.10;;;8.60;;
63943;SDS011;50121;51.218;7.664;2022-08-01T13:52:45;10.00;;;9.30;;
63943;SDS011;50121;51.218;7.664;2022-08-01T13:55:13;10.20;;;9.40;;
63943;SDS011;50121;51.218;7.664;2022-08-01T13:57:40;9.43;;;8.90;;
63943;SDS011;50121;51.218;7.664;2022-08-01T14:00:09;9.95;;;9.25;;
63943;SDS011;50121;51.218;7.664;2022-08-01T14:02:37;8.57;;;7.97;;
63943;SDS011;50121;51.218;7.664;2022-08-01T14:05:05;9.75;;;9.10;;
63943;SDS011;50121;51.218;7.664;2022-08-01T14:07:33;9.73;;;9.00;;
63943;SDS011;50121;51.218;7.664;2022-08-01T14:10:00;10.10;;;9.50;;
63943;SDS011;50121;51.218;7.664;2022-08-01T14:12:28;10.00;;;9.40;;
63943;SDS011;50121;51.218;7.664;2022-08-01T14:14:56;10.07;;;9.43;;
63943;SDS011;50121;51.218;7.664;2022-08-01T14:17:23;11.20;;;10.50;;
63943;SDS011;50121;51.218;7.664;2022-08-01T14:19:51;10.95;;;10.30;;
63943;SDS011;50121;51.218;7.664;2022-08-01T14:22:18;9.10;;;8.57;;
63943;SDS011;50121;51.218;7.664;2022-08-01T14:24:46;9.15;;;8.55;;
63943;SDS011;50121;51.218;7.664;2022-08-01T14:27:15;9.98;;;9.38;;
63943;SDS011;50121;51.218;7.664;2022-08-01T14:29:43;9.63;;;8.98;;
63943;SDS011;50121;51.218;7.664;2022-08-01T14:32:13;9.93;;;9.25;;
63943;SDS011;50121;51.218;7.664;2022-08-01T14:34:40;9.68;;;9.07;;
63943;SDS011;50121;51.218;7.664;2022-08-01T14:37:08;9.75;;;9.15;;
63943;SDS011;50121;51.218;7.664;2022-08-01T14:39:35;9.50;;;9.00;;
63943;SDS011;50121;51.218;7.664;2022-08-01T14:42:03;9.70;;;9.10;;
63943;SDS011;50121;51.218;7.664;2022-08-01T14:44:31;10.02;;;9.43;;
63943;SDS011;50121;51.218;7.664;2022-08-01T14:46:58;11.35;;;10.63;;
63943;SDS011;50121;51.218;7.664;2022-08-01T14:49:26;11.63;;;10.77;;
63943;SDS011;50121;51.218;7.664;2022-08-01T14:51:53;11.77;;;11.07;;
63943;SDS011;50121;51.218;7.664;2022-08-01T14:54:21;12.68;;;11.93;;
63943;SDS011;50121;51.218;7.664;2022-08-01T14:56:49;9.70;;;9.20;;
63943;SDS011;50121;51.218;7.664;2022-08-01T14:59:19;10.65;;;10.05;;
63943;SDS011;50121;51.218;7.664;2022-08-01T15:01:47;10.25;;;9.55;;
63943;SDS011;50121;51.218;7.664;2022-08-01T15:04:15;10.88;;;10.27;;
63943;SDS011;50121;51.218;7.664;2022-08-01T15:06:44;10.60;;;9.80;;
63943;SDS011;50121;51.218;7.664;2022-08-01T15:09:12;11.55;;;10.90;;
63943;SDS011;50121;51.218;7.664;2022-08-01T15:11:39;11.02;;;10.43;;
63943;SDS011;50121;51.218;7.664;2022-08-01T15:14:07;11.10;;;10.45;;